.
WxDataArchive / Data Records for 2012-08-15
2012-08-14 August 2012 2012-08-16

Data Records for Wednesday, 15 August 2012

Time	Temp	Chill	HIndex	Humid	Dewpt	 Wind 	HiWind	WindDir	Rain 	Barom 
-----	----	-----	------	-----	-----	------	------	-------	-----	----- 
00:00	61.8	61.8	61.8	89	58.5	0	0	---	0.00	29.918 
00:05	61.8	61.8	61.8	89	58.5	0	0	---	0.00	29.918 
00:10	61.5	61.5	61.5	89	58.2	0	0	---	0.00	29.918 
00:15	61.5	61.5	61.5	89	58.2	0	0	---	0.00	29.917 
00:20	61.3	61.3	61.3	90	58.3	0	0	---	0.00	29.917 
00:25	61.3	61.3	61.3	90	58.3	0	0	---	0.00	29.917 
00:30	61.2	61.2	61.2	90	58.2	0	0	---	0.00	29.917 
00:35	61.0	61.0	61.0	90	58.0	0	0	---	0.00	29.917 
00:40	60.9	60.9	60.9	90	57.9	0	0	---	0.00	29.917 
00:45	60.7	60.7	60.7	91	58.1	0	0	---	0.00	29.913 
00:50	60.7	60.7	60.7	91	58.1	0	0	---	0.00	29.913 
00:55	60.5	60.5	60.5	91	57.9	0	0	---	0.00	29.913 
01:00	60.5	60.5	60.5	91	57.9	0	0	---	0.00	29.913 
01:05	60.4	60.4	60.4	91	57.8	0	0	---	0.00	29.913 
01:10	60.2	60.2	60.2	92	57.9	0	0	---	0.00	29.913 
01:15	60.2	60.2	60.2	92	57.9	0	0	---	0.00	29.915 
01:20	60.2	60.2	60.2	92	57.9	0	0	---	0.00	29.915 
01:25	60.1	60.1	60.1	92	57.8	0	0	---	0.00	29.915 
01:30	60.1	60.1	60.1	92	57.8	0	0	---	0.00	29.919 
01:35	60.1	60.1	60.1	92	57.8	0	0	---	0.00	29.919 
01:40	59.9	59.9	59.9	92	57.6	0	0	---	0.00	29.919 
01:45	59.9	59.9	59.9	92	57.6	0	0	---	0.00	29.918 
01:50	59.8	59.8	59.8	92	57.5	0	0	---	0.00	29.918 
01:55	59.8	59.8	59.8	92	57.5	0	0	---	0.00	29.918 
02:00	59.8	59.8	59.8	93	57.8	0	0	---	0.00	29.920 
02:05	59.8	59.8	59.8	93	57.8	0	0	---	0.00	29.920 
02:10	59.6	59.6	59.6	93	57.6	0	0	---	0.00	29.920 
02:15	59.6	59.6	59.6	93	57.6	0	0	---	0.00	29.916 
02:20	59.5	59.5	59.5	93	57.5	0	0	---	0.00	29.916 
02:25	59.5	59.5	59.5	93	57.5	0	0	---	0.00	29.916 
02:30	59.3	59.3	59.3	93	57.3	0	0	---	0.00	29.915 
02:35	59.3	59.3	59.3	93	57.3	0	0	---	0.00	29.915 
02:40	59.3	59.3	59.3	93	57.3	0	0	---	0.00	29.915 
02:45	59.3	59.3	59.3	93	57.3	0	0	---	0.00	29.915 
02:50	59.2	59.2	59.2	93	57.2	0	0	---	0.00	29.915 
02:55	59.2	59.2	59.2	93	57.2	0	0	---	0.00	29.915 
03:00	59.2	59.2	59.2	93	57.2	0	0	---	0.00	29.914 
03:05	59.2	59.2	59.2	93	57.2	0	0	---	0.00	29.914 
03:10	59.0	59.0	59.0	93	57.0	0	0	---	0.00	29.914 
03:15	59.0	59.0	59.0	94	57.3	0	0	---	0.00	29.913 
03:20	59.0	59.0	59.0	94	57.3	0	0	---	0.00	29.913 
03:25	58.9	58.9	58.9	94	57.2	0	0	---	0.00	29.913 
03:30	58.9	58.9	58.9	94	57.2	0	0	---	0.00	29.915 
03:35	58.7	58.7	58.7	94	57.0	0	0	---	0.00	29.915 
03:40	58.7	58.7	58.7	94	57.0	0	0	---	0.00	29.915 
03:45	58.9	58.9	58.9	94	57.2	0	1	292	0.00	29.919 
03:50	58.9	58.9	58.9	94	57.2	0	0	---	0.00	29.919 
03:55	59.0	59.0	59.0	94	57.3	0	0	---	0.00	29.919 
04:00	58.9	58.9	58.9	94	57.2	0	0	---	0.00	29.915 
04:05	58.9	58.9	58.9	94	57.2	0	0	---	0.00	29.915 
04:10	58.9	58.9	58.9	94	57.2	0	0	---	0.00	29.915 
04:15	58.9	58.9	58.9	94	57.2	0	0	---	0.00	29.912 
04:20	59.0	59.0	59.0	94	57.3	0	0	---	0.00	29.912 
04:25	59.2	59.2	59.2	95	57.8	0	0	---	0.00	29.912 
04:30	59.2	59.2	59.2	95	57.8	0	0	---	0.00	29.910 
04:35	59.3	59.3	59.3	94	57.6	0	0	---	0.00	29.910 
04:40	59.3	59.3	59.3	95	57.9	0	0	---	0.00	29.910 
04:45	59.3	59.3	59.3	94	57.6	0	0	---	0.00	29.909 
04:50	59.3	59.3	59.3	95	57.9	0	0	---	0.00	29.909 
04:55	59.3	59.3	59.3	95	57.9	0	0	---	0.00	29.909 
05:00	59.2	59.2	59.2	95	57.8	0	0	---	0.00	29.906 
05:05	59.2	59.2	59.2	95	57.8	0	0	---	0.00	29.906 
05:10	59.2	59.2	59.2	95	57.8	0	0	---	0.00	29.906 
05:15	59.3	59.3	59.3	95	57.9	0	0	---	0.00	29.910 
05:20	59.5	59.5	59.5	95	58.1	0	0	---	0.00	29.910 
05:25	59.5	59.5	59.5	95	58.1	0	0	---	0.00	29.910 
05:30	59.6	59.6	59.6	95	58.2	0	0	---	0.00	29.911 
05:35	59.6	59.6	59.6	95	58.2	0	0	---	0.00	29.911 
05:40	59.6	59.6	59.6	95	58.2	0	0	---	0.00	29.911 
05:45	59.5	59.5	59.5	95	58.1	0	0	---	0.00	29.910 
05:50	59.5	59.5	59.5	95	58.1	0	0	---	0.00	29.910 
05:55	59.5	59.5	59.5	95	58.1	0	0	---	0.00	29.910 
06:00	59.6	59.6	59.6	95	58.2	0	0	---	0.00	29.919 
06:05	59.8	59.8	59.8	95	58.4	0	0	---	0.00	29.919 
06:10	59.8	59.8	59.8	95	58.4	0	0	---	0.00	29.919 
06:15	59.8	59.8	59.8	95	58.4	0	0	---	0.00	29.923 
06:20	59.8	59.8	59.8	95	58.4	0	0	---	0.00	29.923 
06:25	59.9	59.9	59.9	95	58.5	0	0	---	0.00	29.923 
06:30	59.9	59.9	59.9	95	58.5	0	0	---	0.00	29.926 
06:35	59.9	59.9	59.9	95	58.5	0	0	---	0.00	29.926 
06:40	60.1	60.1	60.1	95	58.7	0	0	---	0.00	29.926 
06:45	60.2	60.2	60.2	95	58.8	0	0	---	0.00	29.927 
06:50	60.2	60.2	60.2	95	58.8	0	0	---	0.00	29.927 
06:55	60.4	60.4	60.4	95	59.0	0	0	---	0.00	29.927 
07:00	60.4	60.4	60.4	95	59.0	0	0	---	0.00	29.928 
07:05	60.5	60.5	60.5	95	59.1	0	0	---	0.00	29.928 
07:10	60.5	60.5	60.5	95	59.1	0	0	---	0.00	29.928 
07:15	60.5	60.5	60.5	95	59.1	0	0	---	0.00	29.934 
07:20	60.7	60.7	60.7	95	59.3	0	0	---	0.00	29.934 
07:25	60.7	60.7	60.7	95	59.3	0	0	---	0.00	29.934 
07:30	60.7	60.7	60.7	95	59.3	0	0	---	0.00	29.937 
07:35	60.7	60.7	60.7	95	59.3	0	0	---	0.00	29.937 
07:40	60.7	60.7	60.7	95	59.3	0	0	---	0.00	29.937 
07:45	60.9	60.9	60.9	95	59.5	0	0	---	0.00	29.939 
07:50	60.9	60.9	60.9	95	59.5	0	0	---	0.00	29.939 
07:55	61.0	61.0	61.0	96	59.8	0	0	---	0.00	29.939 
08:00	61.2	61.2	61.2	95	59.8	0	0	---	0.00	29.943 
08:05	61.5	61.5	61.5	96	60.3	0	0	---	0.00	29.943 
08:10	62.0	62.0	62.0	96	60.8	0	0	---	0.00	29.943 
08:15	62.7	62.7	62.7	96	61.5	0	0	---	0.00	29.945 
08:20	63.4	63.4	63.4	96	62.2	0	0	---	0.00	29.945 
08:25	63.9	63.9	63.9	95	62.4	0	0	---	0.00	29.945 
08:30	64.5	64.5	64.5	95	63.0	0	0	---	0.00	29.951 
08:35	65.2	65.2	65.2	95	63.7	0	0	---	0.00	29.951 
08:40	65.5	65.5	65.5	94	63.7	0	1	292	0.00	29.951 
08:45	65.8	65.8	65.8	93	63.7	0	0	---	0.00	29.948 
08:50	66.1	66.1	66.1	92	63.7	0	0	---	0.00	29.948 
08:55	66.8	66.8	66.8	91	64.1	0	0	---	0.00	29.948 
09:00	67.3	67.3	67.3	89	63.9	0	0	---	0.00	29.944 
09:05	67.9	67.9	67.9	86	63.5	0	2	292	0.00	29.944 
09:10	68.1	68.1	68.1	82	62.4	0	2	292	0.00	29.944 
09:15	68.3	68.3	68.3	81	62.2	0	0	---	0.00	29.945 
09:20	68.8	68.8	68.8	81	62.7	0	0	---	0.00	29.945 
09:25	69.6	69.6	69.6	79	62.8	0	2	292	0.00	29.945 
09:30	69.8	69.8	69.8	76	61.9	0	2	292	0.00	29.949 
09:35	70.1	70.1	70.1	76	62.2	0	2	292	0.00	29.949 
09:40	70.6	70.6	70.6	74	61.9	0	2	292	0.00	29.949 
09:45	71.1	71.1	71.1	73	62.0	0	1	292	0.00	29.946 
09:50	71.5	71.5	71.5	70	61.2	1	3	292	0.00	29.946 
09:55	72.0	72.0	72.0	72	62.5	0	2	292	0.00	29.946 
10:00	72.7	72.7	72.7	70	62.3	0	2	292	0.00	29.948 
10:05	72.8	72.8	72.8	66	60.8	2	4	292	0.00	29.948 
10:10	73.0	73.0	73.0	67	61.4	2	4	292	0.00	29.948 
10:15	73.5	73.5	73.5	66	61.4	0	2	292	0.00	29.954 
10:20	74.0	74.0	74.0	68	62.8	0	2	45	0.00	29.954 
10:25	74.4	74.4	74.4	63	61.0	1	3	292	0.00	29.954 
10:30	74.4	74.4	74.4	65	61.8	1	2	292	0.00	29.956 
10:35	74.6	74.6	74.6	65	62.0	1	3	292	0.00	29.956 
10:40	75.3	75.3	77.4	64	62.3	0	2	292	0.00	29.956 
10:45	75.6	75.6	77.7	62	61.6	1	3	292	0.00	29.955 
10:50	75.8	75.8	77.9	60	60.9	2	3	292	0.00	29.955 
10:55	75.8	75.8	77.8	61	61.4	1	4	292	0.00	29.955 
11:00	76.1	76.1	78.0	65	63.5	1	3	292	0.00	29.956 
11:05	76.3	76.3	78.2	61	61.8	1	4	292	0.00	29.956 
11:10	76.5	76.5	78.4	60	61.6	0	2	292	0.00	29.956 
11:15	76.7	76.7	78.5	60	61.7	1	4	292	0.00	29.956 
11:20	76.8	76.8	78.6	59	61.4	2	3	292	0.00	29.956 
11:25	77.0	77.0	78.8	59	61.6	1	4	292	0.00	29.956 
11:30	77.4	77.4	79.1	58	61.4	1	3	292	0.00	29.955 
11:35	77.6	77.6	79.2	58	61.6	1	4	292	0.00	29.955 
11:40	77.6	77.6	79.3	59	62.1	1	4	292	0.00	29.955 
11:45	77.7	77.7	79.3	57	61.2	2	3	292	0.00	29.953 
11:50	78.1	78.1	79.6	57	61.6	1	3	292	0.00	29.953 
11:55	78.6	78.6	80.0	56	61.6	1	3	292	0.00	29.953 
12:00	79.2	79.2	80.7	57	62.6	1	2	292	0.00	29.949 
12:05	79.0	79.0	80.2	53	60.4	2	5	270	0.00	29.949 
12:10	79.0	79.0	80.3	55	61.4	1	5	270	0.00	29.949 
12:15	79.4	79.4	80.8	56	62.3	1	3	270	0.00	29.944 
12:20	79.4	79.4	80.7	55	61.8	2	5	270	0.00	29.944 
12:25	79.6	79.6	80.8	54	61.5	2	3	270	0.00	29.944 
12:30	79.9	79.9	81.0	53	61.2	1	4	270	0.00	29.944 
12:35	79.9	79.9	80.8	51	60.1	2	5	248	0.00	29.944 
12:40	80.1	80.1	81.3	54	61.9	1	5	248	0.00	29.944 
12:45	80.1	80.1	81.0	51	60.3	2	4	248	0.00	29.942 
12:50	80.1	80.1	80.9	50	59.8	2	4	292	0.00	29.942 
12:55	80.5	80.5	81.6	53	61.8	1	3	270	0.00	29.942 
13:00	80.7	80.7	82.2	56	63.5	2	4	270	0.00	29.939 
13:05	81.1	81.1	82.1	52	61.8	2	4	270	0.00	29.939 
13:10	81.4	81.4	82.7	54	63.1	1	2	270	0.00	29.939 
13:15	81.8	81.8	82.6	50	61.3	2	4	270	0.00	29.938 
13:20	81.6	81.6	82.2	49	60.6	2	5	292	0.00	29.938 
13:25	80.9	80.9	81.6	50	60.5	2	5	270	0.00	29.938 
13:30	80.9	80.9	81.8	51	61.0	1	3	270	0.00	29.939 
13:35	81.1	81.1	81.8	50	60.7	1	3	270	0.00	29.939 
13:40	81.1	81.1	82.0	51	61.2	1	3	270	0.00	29.939 
13:45	80.9	80.9	81.8	51	61.0	2	3	315	0.00	29.939 
13:50	81.1	81.1	81.7	49	60.1	2	4	270	0.00	29.939 
13:55	80.9	80.9	81.5	49	59.9	2	4	292	0.00	29.939 
14:00	80.9	80.9	81.6	50	60.5	2	5	292	0.00	29.938 
14:05	80.9	80.9	81.4	48	59.3	1	3	292	0.00	29.938 
14:10	81.2	81.2	81.9	50	60.8	1	3	315	0.00	29.938 
14:15	81.2	81.2	81.9	50	60.8	2	4	270	0.00	29.935 
14:20	81.6	81.6	82.5	51	61.7	1	4	315	0.00	29.935 
14:25	82.2	82.2	82.8	49	61.1	1	2	315	0.00	29.935 
14:30	82.4	82.4	82.6	46	59.5	3	5	270	0.00	29.936 
14:35	82.0	82.0	82.2	46	59.1	1	4	270	0.00	29.936 
14:40	82.4	82.4	82.7	47	60.1	2	5	292	0.00	29.936 
14:45	82.6	82.6	83.0	47	60.3	1	3	292	0.00	29.930 
14:50	82.4	82.4	82.2	43	57.6	2	4	270	0.00	29.930 
14:55	82.2	82.2	82.4	46	59.3	1	3	270	0.00	29.930 
15:00	81.8	81.8	81.9	45	58.4	1	4	292	0.00	29.929 
15:05	81.8	81.8	82.0	46	59.0	1	3	292	0.00	29.929 
15:10	81.4	81.4	81.6	46	58.6	1	2	292	0.00	29.929 
15:15	81.1	81.1	81.4	46	58.3	1	3	292	0.00	29.928 
15:20	80.9	80.9	81.3	47	58.8	0	2	292	0.00	29.928 
15:25	80.7	80.7	81.1	47	58.6	1	3	292	0.00	29.928 
15:30	81.1	81.1	81.5	47	58.9	1	3	292	0.00	29.924 
15:35	81.1	81.1	81.5	47	58.9	1	3	292	0.00	29.924 
15:40	80.9	80.9	81.3	47	58.8	1	2	292	0.00	29.924 
15:45	81.2	81.2	81.7	48	59.6	1	3	292	0.00	29.923 
15:50	81.6	81.6	81.8	46	58.8	1	3	292	0.00	29.923 
15:55	81.4	81.4	81.5	45	58.0	1	2	292	0.00	29.923 
16:00	81.1	81.1	81.6	48	59.5	1	2	292	0.00	29.923 
16:05	81.4	81.4	81.8	47	59.2	2	6	270	0.00	29.923 
16:10	81.8	81.8	82.0	46	59.0	3	5	270	0.00	29.923 
16:15	81.6	81.6	81.8	46	58.8	2	5	315	0.00	29.924 
16:20	81.2	81.2	81.5	46	58.4	1	4	270	0.00	29.924 
16:25	81.2	81.2	81.8	49	60.2	1	3	270	0.00	29.924 
16:30	81.4	81.4	81.9	48	59.8	2	4	292	0.00	29.923 
16:35	81.6	81.6	82.1	48	60.0	1	4	292	0.00	29.923 
16:40	81.6	81.6	82.2	49	60.6	0	2	292	0.00	29.923 
16:45	82.2	82.2	82.5	47	59.9	1	3	292	0.00	29.923 
16:50	81.8	81.8	81.6	43	57.1	1	4	292	0.00	29.923 
16:55	81.4	81.4	81.5	45	58.0	1	3	292	0.00	29.923 
17:00	81.8	81.8	82.0	46	59.0	1	3	315	0.00	29.922 
17:05	82.2	82.2	82.3	45	58.7	1	3	292	0.00	29.922 
17:10	82.6	82.6	82.5	44	58.4	1	3	0	0.00	29.922 
17:15	82.6	82.6	82.4	43	57.8	2	3	292	0.00	29.920 
17:20	82.8	82.8	83.0	46	59.9	1	3	292	0.00	29.920 
17:25	82.8	82.8	82.7	44	58.6	2	4	270	0.00	29.920 
17:30	82.6	82.6	82.5	44	58.4	1	4	315	0.00	29.916 
17:35	82.4	82.4	82.6	46	59.5	1	3	315	0.00	29.916 
17:40	82.2	82.2	82.1	44	58.1	1	4	315	0.00	29.916 
17:45	82.2	82.2	82.1	44	58.1	1	3	315	0.00	29.914 
17:50	82.2	82.2	82.4	46	59.3	1	3	315	0.00	29.914 
17:55	82.2	82.2	82.4	46	59.3	1	3	270	0.00	29.914 
18:00	82.2	82.2	82.5	47	59.9	1	3	292	0.00	29.916 
18:05	82.2	82.2	82.5	47	59.9	1	3	292	0.00	29.916 
18:10	82.2	82.2	82.4	46	59.3	1	2	292	0.00	29.916 
18:15	82.0	82.0	82.2	46	59.1	1	3	292	0.00	29.918 
18:20	82.0	82.0	82.2	46	59.1	1	3	292	0.00	29.918 
18:25	81.6	81.6	81.9	47	59.4	1	2	292	0.00	29.918 
18:30	81.4	81.4	81.9	48	59.8	1	2	292	0.00	29.918 
18:35	81.1	81.1	81.7	49	60.1	1	3	292	0.00	29.918 
18:40	80.7	80.7	81.4	50	60.3	0	1	292	0.00	29.918 
18:45	80.3	80.3	81.2	51	60.5	0	1	292	0.00	29.919 
18:50	79.9	79.9	80.8	51	60.1	0	1	292	0.00	29.919 
18:55	79.9	79.9	80.9	52	60.7	0	1	292	0.00	29.919 
19:00	80.3	80.3	81.2	51	60.5	0	1	292	0.00	29.909 
19:05	80.5	80.5	81.3	50	60.1	0	1	292	0.00	29.909 
19:10	80.7	80.7	81.3	49	59.7	0	1	292	0.00	29.909 
19:15	80.7	80.7	81.6	51	60.9	0	1	292	0.00	29.907 
19:20	80.9	80.9	81.6	50	60.5	0	1	292	0.00	29.907 
19:25	80.9	80.9	81.6	50	60.5	0	1	292	0.00	29.907 
19:30	80.9	80.9	81.6	50	60.5	0	1	292	0.00	29.906 
19:35	80.7	80.7	81.6	51	60.9	0	2	292	0.00	29.906 
19:40	80.5	80.5	81.4	51	60.7	0	1	292	0.00	29.906 
19:45	80.3	80.3	81.2	51	60.5	0	1	292	0.00	29.909 
19:50	80.1	80.1	81.0	51	60.3	0	1	292	0.00	29.909 
19:55	79.9	79.9	81.0	53	61.2	0	0	---	0.00	29.909 
20:00	79.8	79.8	80.9	53	61.1	0	0	---	0.00	29.910 
20:05	79.6	79.6	80.7	53	60.9	0	0	---	0.00	29.910 
20:10	79.4	79.4	80.6	54	61.3	0	0	---	0.00	29.910 
20:15	79.0	79.0	80.3	54	60.9	0	0	---	0.00	29.904 
20:20	78.8	78.8	80.1	55	61.2	0	0	---	0.00	29.904 
20:25	78.5	78.5	79.9	55	61.0	0	0	---	0.00	29.904 
20:30	78.1	78.1	79.6	56	61.1	0	0	---	0.00	29.909 
20:35	77.7	77.7	79.3	57	61.2	0	0	---	0.00	29.909 
20:40	77.2	77.2	78.9	58	61.3	0	0	---	0.00	29.909 
20:45	76.7	76.7	78.5	60	61.7	0	0	---	0.00	29.907 
20:50	76.3	76.3	78.2	60	61.4	0	0	---	0.00	29.907 
20:55	76.0	76.0	78.0	61	61.6	0	0	---	0.00	29.907 
21:00	75.4	75.4	77.5	62	61.5	0	0	---	0.00	29.911 
21:05	75.1	75.1	77.3	63	61.6	0	0	---	0.00	29.911 
21:10	74.7	74.7	74.7	63	61.2	0	0	---	0.00	29.911 
21:15	74.4	74.4	74.4	65	61.8	0	0	---	0.00	29.910 
21:20	74.0	74.0	74.0	66	61.9	0	0	---	0.00	29.910 
21:25	73.7	73.7	73.7	66	61.6	0	0	---	0.00	29.910 
21:30	73.2	73.2	73.2	67	61.6	0	0	---	0.00	29.914 
21:35	72.8	72.8	72.8	68	61.6	0	0	---	0.00	29.914 
21:40	72.3	72.3	72.3	69	61.5	0	0	---	0.00	29.914 
21:45	72.1	72.1	72.1	70	61.8	0	0	---	0.00	29.920 
21:50	71.8	71.8	71.8	71	61.9	0	1	292	0.00	29.920 
21:55	71.5	71.5	71.5	72	62.0	0	0	---	0.00	29.920 
22:00	71.1	71.1	71.1	73	62.0	0	0	---	0.00	29.923 
22:05	70.9	70.9	70.9	73	61.8	0	0	---	0.00	29.923 
22:10	70.6	70.6	70.6	74	61.9	0	0	---	0.00	29.923 
22:15	70.4	70.4	70.4	75	62.1	0	0	---	0.00	29.923 
22:20	70.1	70.1	70.1	76	62.2	0	0	---	0.00	29.923 
22:25	69.9	69.9	69.9	76	62.0	0	0	---	0.00	29.923 
22:30	69.8	69.8	69.8	77	62.3	0	0	---	0.00	29.925 
22:35	69.6	69.6	69.6	78	62.4	0	0	---	0.00	29.925 
22:40	69.4	69.4	69.4	78	62.2	0	0	---	0.00	29.925 
22:45	69.3	69.3	69.3	79	62.5	0	0	---	0.00	29.923 
22:50	69.1	69.1	69.1	79	62.3	0	0	---	0.00	29.923 
22:55	68.8	68.8	68.8	80	62.4	0	0	---	0.00	29.923 
23:00	68.6	68.6	68.6	80	62.2	0	0	---	0.00	29.926 
23:05	68.4	68.4	68.4	80	62.0	0	0	---	0.00	29.926 
23:10	68.3	68.3	68.3	81	62.2	0	0	---	0.00	29.926 
23:15	68.1	68.1	68.1	81	62.0	0	0	---	0.00	29.930 
23:20	67.9	67.9	67.9	82	62.2	0	0	---	0.00	29.930 
23:25	67.8	67.8	67.8	82	62.1	0	0	---	0.00	29.930 
23:30	67.6	67.6	67.6	82	61.9	0	0	---	0.00	29.927 
23:35	67.4	67.4	67.4	82	61.7	0	0	---	0.00	29.927 
23:40	67.4	67.4	67.4	83	62.0	0	0	---	0.00	29.927 
23:45	67.3	67.3	67.3	84	62.3	0	0	---	0.00	29.929 
23:50	67.1	67.1	67.1	84	62.1	0	0	---	0.00	29.929 
23:55	66.9	66.9	66.9	85	62.2	0	0	---	0.00	29.929 

CoCoRaHS
IN-AL-39
A2 Web Hosting
Creative Commons License
GoDaddy
search engine by freefind advanced

loaded 2018-11-19 19:26:38 • last modified 2010-11-18 10:43:29
Privacy PolicyDisclaimer
• wx.awcolley.com is powered by PmWiki v.2002016 •
• all content (unless otherwise noted) © 2018 A W Colley